RYR227A FQMA-FAOR
Flight info
| Callsign | RYR227A |
|---|---|
| Flight time | N/A |
| Altitude | 26000 |
| Route | ANVAK DCT IMKAN UT446 IBGUB |
| Aircraft | B38M/M-SDE1FGHILORVWXY/HB1 |
Departure
| Time | 2026-04-22 18:17 |
|---|---|
| Airport | Maputo Airport (FQMA) |
Arrival
| Time | N/A |
|---|---|
| Airport | O.R. Tambo International Airport (FAOR) |
| Time | Latitude | Longitude | Altitude | Speed | Heading |
|---|---|---|---|---|---|
| 2026-04-22 18:13 | -25.90897 | 32.58191 | 146 ft | 27 kts | 30° |
| 2026-04-22 18:14 | -25.90727 | 32.58295 | 148 ft | 28 kts | 28° |
| 2026-04-22 18:14 | -25.90551 | 32.58401 | 150 ft | 29 kts | 26° |
| 2026-04-22 18:14 | -25.90415 | 32.58479 | 151 ft | 6 kts | 20° |
| 2026-04-22 18:14 | -25.90409 | 32.58480 | 151 ft | 5 kts | 8° |
| 2026-04-22 18:15 | -25.90406 | 32.58480 | 151 ft | 0 kts | 356° |
| 2026-04-22 18:15 | -25.90400 | 32.58474 | 151 ft | 2 kts | 308° |
| 2026-04-22 18:15 | -25.90402 | 32.58437 | 151 ft | 8 kts | 259° |
| 2026-04-22 18:15 | -25.90382 | 32.58384 | 151 ft | 9 kts | 298° |
| 2026-04-22 18:16 | -25.90372 | 32.58318 | 151 ft | 9 kts | 231° |
| 2026-04-22 18:16 | -25.90429 | 32.58265 | 150 ft | 13 kts | 208° |
| 2026-04-22 18:16 | -25.90650 | 32.58130 | 147 ft | 71 kts | 208° |
| 2026-04-22 18:16 | -25.91264 | 32.57754 | 144 ft | 131 kts | 209° |
| 2026-04-22 18:17 | -25.92210 | 32.57198 | 243 ft | 169 kts | 206° |
| 2026-04-22 18:17 | -25.93251 | 32.56535 | 884 ft | 174 kts | 214° |
| 2026-04-22 18:17 | -25.94175 | 32.55521 | 1394 ft | 200 kts | 226° |
| 2026-04-22 18:17 | -25.94957 | 32.54173 | 2189 ft | 216 kts | 235° |
| 2026-04-22 18:18 | -25.95535 | 32.52573 | 3056 ft | 234 kts | 250° |
| 2026-04-22 18:18 | -25.95580 | 32.50656 | 3704 ft | 258 kts | 269° |
| 2026-04-22 18:18 | -25.95414 | 32.48674 | 4731 ft | 258 kts | 271° |
| 2026-04-22 18:18 | -25.95233 | 32.46679 | 5694 ft | 263 kts | 276° |
| 2026-04-22 18:19 | -25.94811 | 32.44739 | 6684 ft | 263 kts | 283° |
| 2026-04-22 18:19 | -25.94321 | 32.42714 | 7281 ft | 280 kts | 283° |
| 2026-04-22 18:19 | -25.93827 | 32.40605 | 8136 ft | 279 kts | 283° |
| 2026-04-22 18:19 | -25.93353 | 32.38501 | 9044 ft | 285 kts | 283° |
| 2026-04-22 18:20 | -25.92887 | 32.36349 | 9918 ft | 288 kts | 283° |
| 2026-04-22 18:20 | -25.92442 | 32.34236 | 11036 ft | 277 kts | 283° |
| 2026-04-22 18:20 | -25.91982 | 32.32100 | 11628 ft | 288 kts | 283° |
| 2026-04-22 18:20 | -25.91537 | 32.30006 | 12751 ft | 276 kts | 282° |
| 2026-04-22 18:21 | -25.91087 | 32.27910 | 13519 ft | 286 kts | 283° |
| 2026-04-22 18:21 | -25.90596 | 32.25716 | 14042 ft | 301 kts | 283° |
| 2026-04-22 18:21 | -25.90075 | 32.23388 | 14350 ft | 321 kts | 283° |
| 2026-04-22 18:21 | -25.89523 | 32.20911 | 14611 ft | 340 kts | 283° |
| 2026-04-22 18:22 | -25.88941 | 32.18299 | 14945 ft | 355 kts | 283° |
| 2026-04-22 18:22 | -25.88341 | 32.15597 | 15448 ft | 362 kts | 283° |
| 2026-04-22 18:22 | -25.87737 | 32.12876 | 16126 ft | 365 kts | 283° |
| 2026-04-22 18:22 | -25.87128 | 32.10130 | 16754 ft | 367 kts | 283° |
| 2026-04-22 18:23 | -25.86511 | 32.07370 | 17421 ft | 369 kts | 283° |
| 2026-04-22 18:23 | -25.85881 | 32.04642 | 18040 ft | 371 kts | 284° |
| 2026-04-22 18:23 | -25.85232 | 32.01867 | 18647 ft | 372 kts | 284° |
| 2026-04-22 18:24 | -25.83925 | 31.96263 | 19600 ft | 378 kts | 285° |
| 2026-04-22 18:24 | -25.83264 | 31.93426 | 20063 ft | 381 kts | 285° |
| 2026-04-22 18:24 | -25.81925 | 31.87694 | 20957 ft | 387 kts | 286° |
| 2026-04-22 18:25 | -25.81254 | 31.84825 | 21378 ft | 391 kts | 286° |
| 2026-04-22 18:25 | -25.80568 | 31.81894 | 21798 ft | 394 kts | 286° |
| 2026-04-22 18:25 | -25.79876 | 31.78938 | 22201 ft | 397 kts | 287° |
| 2026-04-22 18:26 | -25.78473 | 31.72959 | 23001 ft | 404 kts | 287° |
| 2026-04-22 18:26 | -25.77762 | 31.69933 | 23387 ft | 407 kts | 287° |
| 2026-04-22 18:26 | -25.77045 | 31.66886 | 23782 ft | 410 kts | 288° |
| 2026-04-22 18:26 | -25.76323 | 31.63815 | 24088 ft | 413 kts | 288° |
| 2026-04-22 18:27 | -25.75605 | 31.60767 | 24235 ft | 414 kts | 288° |
| 2026-04-22 18:27 | -25.74879 | 31.57687 | 24265 ft | 412 kts | 288° |
| 2026-04-22 18:27 | -25.74153 | 31.54611 | 24266 ft | 412 kts | 288° |
| 2026-04-22 18:27 | -25.73426 | 31.51540 | 24266 ft | 412 kts | 288° |
| 2026-04-22 18:28 | -25.72701 | 31.48472 | 24267 ft | 412 kts | 288° |
| 2026-04-22 18:28 | -25.71973 | 31.45402 | 24279 ft | 412 kts | 288° |
| 2026-04-22 18:28 | -25.71244 | 31.42328 | 24278 ft | 412 kts | 288° |
| 2026-04-22 18:28 | -25.70517 | 31.39262 | 24286 ft | 412 kts | 288° |
| 2026-04-22 18:29 | -25.69787 | 31.36192 | 24282 ft | 412 kts | 288° |
| 2026-04-22 18:29 | -25.69067 | 31.33164 | 24285 ft | 412 kts | 288° |
| 2026-04-22 18:29 | -25.68335 | 31.30088 | 24288 ft | 413 kts | 288° |
| 2026-04-22 18:29 | -25.67602 | 31.27011 | 24273 ft | 413 kts | 288° |
| 2026-04-22 18:30 | -25.66868 | 31.23935 | 24285 ft | 413 kts | 288° |
| 2026-04-22 18:30 | -25.65516 | 31.17749 | 24279 ft | 416 kts | 281° |
| 2026-04-22 18:30 | -25.65499 | 31.14525 | 24284 ft | 423 kts | 267° |
| 2026-04-22 18:31 | -25.65882 | 31.11290 | 24291 ft | 423 kts | 268° |
| 2026-04-22 18:31 | -25.66214 | 31.08091 | 24289 ft | 423 kts | 268° |
| 2026-04-22 18:31 | -25.66533 | 31.04852 | 24298 ft | 423 kts | 268° |
| 2026-04-22 18:31 | -25.66844 | 31.01614 | 24295 ft | 423 kts | 268° |
| 2026-04-22 18:32 | -25.67152 | 30.98371 | 24294 ft | 422 kts | 268° |
| 2026-04-22 18:32 | -25.67458 | 30.95133 | 24288 ft | 422 kts | 268° |
| 2026-04-22 18:32 | -25.67763 | 30.91899 | 24298 ft | 422 kts | 268° |
| 2026-04-22 18:32 | -25.68067 | 30.88663 | 24288 ft | 421 kts | 268° |
| 2026-04-22 18:33 | -25.68369 | 30.85442 | 24294 ft | 421 kts | 268° |
| 2026-04-22 18:33 | -25.68666 | 30.82263 | 24295 ft | 420 kts | 268° |
| 2026-04-22 18:33 | -25.68966 | 30.79045 | 24298 ft | 419 kts | 268° |
| 2026-04-22 18:33 | -25.69265 | 30.75838 | 24299 ft | 419 kts | 268° |
| 2026-04-22 18:34 | -25.69563 | 30.72630 | 24306 ft | 418 kts | 268° |
| 2026-04-22 18:34 | -25.69860 | 30.69428 | 24300 ft | 417 kts | 268° |
| 2026-04-22 18:34 | -25.70155 | 30.66231 | 24301 ft | 417 kts | 268° |
| 2026-04-22 18:34 | -25.70450 | 30.63037 | 24304 ft | 416 kts | 268° |
| 2026-04-22 18:35 | -25.70743 | 30.59851 | 24305 ft | 415 kts | 268° |
| 2026-04-22 18:35 | -25.71035 | 30.56666 | 24295 ft | 414 kts | 268° |
| 2026-04-22 18:35 | -25.71325 | 30.53494 | 24310 ft | 413 kts | 268° |
| 2026-04-22 18:35 | -25.71611 | 30.50366 | 24319 ft | 413 kts | 268° |
| 2026-04-22 18:36 | -25.71900 | 30.47206 | 24311 ft | 412 kts | 268° |
| 2026-04-22 18:36 | -25.72186 | 30.44048 | 24314 ft | 411 kts | 268° |
| 2026-04-22 18:36 | -25.72472 | 30.40897 | 24313 ft | 410 kts | 268° |
| 2026-04-22 18:36 | -25.72756 | 30.37752 | 24317 ft | 409 kts | 268° |
| 2026-04-22 18:37 | -25.73039 | 30.34615 | 24316 ft | 409 kts | 268° |
| 2026-04-22 18:37 | -25.73321 | 30.31484 | 24316 ft | 408 kts | 268° |
| 2026-04-22 18:37 | -25.73507 | 30.29409 | 24322 ft | 407 kts | 268° |
| 2026-04-22 18:37 | -25.73877 | 30.25277 | 24320 ft | 406 kts | 268° |
| 2026-04-22 18:38 | -25.74156 | 30.22163 | 24323 ft | 406 kts | 268° |
| 2026-04-22 18:38 | -25.74433 | 30.19051 | 24315 ft | 405 kts | 268° |
| 2026-04-22 18:38 | -25.74709 | 30.15945 | 24328 ft | 405 kts | 268° |
| 2026-04-22 18:39 | -25.75259 | 30.09742 | 24328 ft | 403 kts | 268° |
| 2026-04-22 18:39 | -25.75532 | 30.06646 | 24323 ft | 403 kts | 268° |
| 2026-04-22 18:39 | -25.75804 | 30.03554 | 24333 ft | 403 kts | 268° |
| 2026-04-22 18:39 | -25.76072 | 30.00505 | 24322 ft | 402 kts | 268° |
| 2026-04-22 18:40 | -25.76342 | 29.97425 | 24321 ft | 401 kts | 268° |
| 2026-04-22 18:40 | -25.76611 | 29.94343 | 24329 ft | 401 kts | 268° |
| 2026-04-22 18:40 | -25.76879 | 29.91270 | 24325 ft | 400 kts | 268° |
| 2026-04-22 18:40 | -25.77146 | 29.88201 | 24320 ft | 399 kts | 268° |
| 2026-04-22 18:41 | -25.77412 | 29.85137 | 24319 ft | 399 kts | 268° |
| 2026-04-22 18:41 | -25.77677 | 29.82078 | 24331 ft | 398 kts | 268° |
| 2026-04-22 18:41 | -25.77941 | 29.79024 | 24322 ft | 397 kts | 268° |
| 2026-04-22 18:41 | -25.78200 | 29.76014 | 24321 ft | 396 kts | 268° |
| 2026-04-22 18:42 | -25.78461 | 29.72977 | 24316 ft | 396 kts | 268° |
| 2026-04-22 18:42 | -25.78721 | 29.69940 | 24316 ft | 395 kts | 268° |
| 2026-04-22 18:42 | -25.78980 | 29.66913 | 24316 ft | 394 kts | 268° |
| 2026-04-22 18:42 | -25.79238 | 29.63887 | 24313 ft | 393 kts | 268° |
| 2026-04-22 18:43 | -25.79495 | 29.60872 | 24318 ft | 392 kts | 268° |
| 2026-04-22 18:43 | -25.79750 | 29.57861 | 24326 ft | 392 kts | 268° |
| 2026-04-22 18:43 | -25.80005 | 29.54856 | 24316 ft | 391 kts | 268° |
| 2026-04-22 18:43 | -25.80258 | 29.51858 | 24316 ft | 390 kts | 268° |
| 2026-04-22 18:44 | -25.80507 | 29.48905 | 24316 ft | 389 kts | 268° |
| 2026-04-22 18:44 | -25.80758 | 29.45917 | 24318 ft | 388 kts | 268° |
| 2026-04-22 18:44 | -25.81007 | 29.42939 | 24318 ft | 388 kts | 268° |
| 2026-04-22 18:44 | -25.81256 | 29.39965 | 24316 ft | 387 kts | 268° |
| 2026-04-22 18:45 | -25.81504 | 29.36994 | 24321 ft | 386 kts | 268° |
| 2026-04-22 18:45 | -25.81750 | 29.34033 | 24317 ft | 385 kts | 268° |
| 2026-04-22 18:45 | -25.81995 | 29.31092 | 24145 ft | 379 kts | 268° |
| 2026-04-22 18:45 | -25.82234 | 29.28209 | 23928 ft | 368 kts | 268° |
| 2026-04-22 18:46 | -25.82462 | 29.25440 | 23923 ft | 357 kts | 268° |
| 2026-04-22 18:46 | -25.82684 | 29.22753 | 23562 ft | 352 kts | 268° |
| 2026-04-22 18:46 | -25.82970 | 29.20060 | 23110 ft | 353 kts | 259° |
| 2026-04-22 18:46 | -25.83943 | 29.17546 | 22731 ft | 360 kts | 245° |
| 2026-04-22 18:47 | -25.85159 | 29.15118 | 22409 ft | 359 kts | 246° |
| 2026-04-22 18:47 | -25.86354 | 29.12689 | 22035 ft | 357 kts | 245° |
| 2026-04-22 18:47 | -25.87543 | 29.10294 | 21657 ft | 353 kts | 245° |
| 2026-04-22 18:47 | -25.88723 | 29.07921 | 21279 ft | 349 kts | 245° |
| 2026-04-22 18:48 | -25.89894 | 29.05571 | 20910 ft | 346 kts | 245° |
| 2026-04-22 18:48 | -25.91056 | 29.03238 | 20553 ft | 344 kts | 244° |
| 2026-04-22 18:48 | -25.92191 | 29.00957 | 20189 ft | 341 kts | 244° |
| 2026-04-22 18:48 | -25.93333 | 28.98662 | 19835 ft | 339 kts | 244° |
| 2026-04-22 18:49 | -25.94469 | 28.96377 | 19482 ft | 337 kts | 243° |
| 2026-04-22 18:49 | -25.95598 | 28.94107 | 19132 ft | 335 kts | 243° |
| 2026-04-22 18:49 | -25.96722 | 28.91845 | 18785 ft | 333 kts | 243° |
| 2026-04-22 18:49 | -25.97839 | 28.89595 | 18407 ft | 332 kts | 243° |
| 2026-04-22 18:50 | -25.98950 | 28.87357 | 18027 ft | 330 kts | 243° |
| 2026-04-22 18:50 | -26.00052 | 28.85135 | 17671 ft | 327 kts | 242° |
| 2026-04-22 18:50 | -26.01144 | 28.82934 | 17339 ft | 324 kts | 242° |
| 2026-04-22 18:50 | -26.02228 | 28.80746 | 17006 ft | 322 kts | 242° |
| 2026-04-22 18:51 | -26.03288 | 28.78607 | 16677 ft | 320 kts | 242° |
| 2026-04-22 18:51 | -26.04359 | 28.76444 | 16347 ft | 318 kts | 242° |
| 2026-04-22 18:51 | -26.05423 | 28.74293 | 16024 ft | 317 kts | 242° |
| 2026-04-22 18:51 | -26.06482 | 28.72153 | 15689 ft | 316 kts | 242° |
| 2026-04-22 18:52 | -26.07539 | 28.70016 | 15374 ft | 315 kts | 242° |
| 2026-04-22 18:52 | -26.08594 | 28.67881 | 15047 ft | 314 kts | 242° |
| 2026-04-22 18:52 | -26.09644 | 28.65756 | 14723 ft | 313 kts | 242° |
| 2026-04-22 18:52 | -26.10581 | 28.63858 | 14439 ft | 313 kts | 242° |
| 2026-04-22 18:53 | -26.11273 | 28.62456 | 14226 ft | 313 kts | 242° |
| 2026-04-22 18:53 | -26.12657 | 28.59650 | 13758 ft | 312 kts | 242° |
| 2026-04-22 18:53 | -26.13700 | 28.57535 | 13418 ft | 311 kts | 242° |
| 2026-04-22 18:53 | -26.14736 | 28.55433 | 13100 ft | 309 kts | 242° |
| 2026-04-22 18:54 | -26.15770 | 28.53334 | 12777 ft | 308 kts | 242° |
| 2026-04-22 18:54 | -26.16796 | 28.51250 | 12462 ft | 307 kts | 242° |
| 2026-04-22 18:54 | -26.17822 | 28.49165 | 12149 ft | 306 kts | 242° |
| 2026-04-22 18:54 | -26.18843 | 28.47091 | 11827 ft | 306 kts | 242° |
| 2026-04-22 18:55 | -26.19518 | 28.45717 | 11621 ft | 305 kts | 242° |
| 2026-04-22 18:55 | -26.20863 | 28.42981 | 11206 ft | 303 kts | 241° |
| 2026-04-22 18:55 | -26.21869 | 28.40933 | 10942 ft | 299 kts | 242° |
| 2026-04-22 18:55 | -26.22853 | 28.38929 | 10801 ft | 291 kts | 242° |
| 2026-04-22 18:56 | -26.23807 | 28.36984 | 10655 ft | 280 kts | 242° |
| 2026-04-22 18:56 | -26.24713 | 28.35139 | 10535 ft | 266 kts | 242° |
| 2026-04-22 18:56 | -26.25589 | 28.33351 | 10407 ft | 260 kts | 242° |
| 2026-04-22 18:56 | -26.26162 | 28.32184 | 10308 ft | 258 kts | 242° |
| 2026-04-22 18:57 | -26.27020 | 28.30433 | 10157 ft | 257 kts | 242° |
| 2026-04-22 18:57 | -26.27868 | 28.28703 | 10058 ft | 251 kts | 242° |
| 2026-04-22 18:57 | -26.28957 | 28.26480 | 9804 ft | 243 kts | 242° |
| 2026-04-22 18:57 | -26.29659 | 28.24807 | 9657 ft | 236 kts | 257° |
| 2026-04-22 18:58 | -26.29755 | 28.23594 | 9496 ft | 231 kts | 276° |
| 2026-04-22 18:58 | -26.29244 | 28.21983 | 9371 ft | 219 kts | 306° |
| 2026-04-22 18:58 | -26.28145 | 28.20946 | 9193 ft | 201 kts | 337° |
| 2026-04-22 18:58 | -26.26824 | 28.20615 | 8889 ft | 192 kts | 355° |
| 2026-04-22 18:59 | -26.25509 | 28.20525 | 8531 ft | 187 kts | 359° |
| 2026-04-22 18:59 | -26.24213 | 28.20492 | 8103 ft | 185 kts | 6° |
| 2026-04-22 18:59 | -26.22575 | 28.20952 | 7637 ft | 184 kts | 19° |
| 2026-04-22 18:59 | -26.21348 | 28.21389 | 7184 ft | 184 kts | 17° |
| 2026-04-22 19:00 | -26.20523 | 28.21639 | 6924 ft | 177 kts | 15° |
| 2026-04-22 19:00 | -26.19393 | 28.21965 | 6650 ft | 165 kts | 15° |
| 2026-04-22 19:00 | -26.18305 | 28.22296 | 6365 ft | 161 kts | 15° |
| 2026-04-22 19:00 | -26.17202 | 28.22430 | 6109 ft | 159 kts | 359° |
| 2026-04-22 19:01 | -26.16114 | 28.22270 | 6187 ft | 157 kts | 349° |
| 2026-04-22 19:01 | -26.15098 | 28.22004 | 6878 ft | 143 kts | 346° |
| 2026-04-22 19:01 | -26.14133 | 28.21726 | 7393 ft | 145 kts | 346° |
| 2026-04-22 19:01 | -26.12739 | 28.21304 | 7670 ft | 163 kts | 345° |